sensor_id;sensor_type;location;lat;lon;timestamp;pressure;altitude;pressure_sealevel;temperature
79228;BMP280;68658;46.174;11.254;2023-05-14T00:01:33;92546.63;;;9.54
79228;BMP280;68658;46.174;11.254;2023-05-14T00:03:58;92543.53;;;9.66
79228;BMP280;68658;46.174;11.254;2023-05-14T00:06:24;92546.41;;;9.68
79228;BMP280;68658;46.174;11.254;2023-05-14T00:08:49;92543.53;;;9.72
79228;BMP280;68658;46.174;11.254;2023-05-14T00:11:15;92539.66;;;9.73
79228;BMP280;68658;46.174;11.254;2023-05-14T00:13:40;92532.97;;;9.72
79228;BMP280;68658;46.174;11.254;2023-05-14T00:16:06;92523.63;;;9.71
79228;BMP280;68658;46.174;11.254;2023-05-14T00:18:31;92534.19;;;9.71
79228;BMP280;68658;46.174;11.254;2023-05-14T00:20:57;92533.22;;;9.68
79228;BMP280;68658;46.174;11.254;2023-05-14T00:23:23;92530.34;;;9.66
79228;BMP280;68658;46.174;11.254;2023-05-14T00:25:49;92523.41;;;9.52
79228;BMP280;68658;46.174;11.254;2023-05-14T00:28:15;92523.59;;;9.16
79228;BMP280;68658;46.174;11.254;2023-05-14T00:30:40;92510.84;;;8.82
79228;BMP280;68658;46.174;11.254;2023-05-14T00:33:06;92515.69;;;9.00
79228;BMP280;68658;46.174;11.254;2023-05-14T00:35:31;92509.47;;;9.14
79228;BMP280;68658;46.174;11.254;2023-05-14T00:38:00;92510.94;;;9.15
79228;BMP280;68658;46.174;11.254;2023-05-14T00:40:26;92508.75;;;9.19
79228;BMP280;68658;46.174;11.254;2023-05-14T00:42:52;92511.63;;;9.15
79228;BMP280;68658;46.174;11.254;2023-05-14T00:45:18;92506.63;;;9.23
79228;BMP280;68658;46.174;11.254;2023-05-14T00:47:43;92506.63;;;9.33
79228;BMP280;68658;46.174;11.254;2023-05-14T00:50:10;92511.41;;;9.40
79228;BMP280;68658;46.174;11.254;2023-05-14T00:52:37;92507.34;;;9.39
79228;BMP280;68658;46.174;11.254;2023-05-14T00:55:06;92510.94;;;9.42
79228;BMP280;68658;46.174;11.254;2023-05-14T00:57:33;92504.47;;;9.43
79228;BMP280;68658;46.174;11.254;2023-05-14T01:00:00;92507.59;;;9.41
79228;BMP280;68658;46.174;11.254;2023-05-14T01:02:26;92496.56;;;9.32
79228;BMP280;68658;46.174;11.254;2023-05-14T01:04:52;92496.81;;;9.34
79228;BMP280;68658;46.174;11.254;2023-05-14T01:07:38;92492.25;;;9.34
79228;BMP280;68658;46.174;11.254;2023-05-14T01:10:12;92492.75;;;9.33
79228;BMP280;68658;46.174;11.254;2023-05-14T01:12:49;92484.13;;;9.22
79228;BMP280;68658;46.174;11.254;2023-05-14T01:15:23;92485.78;;;9.14
79228;BMP280;68658;46.174;11.254;2023-05-14T01:17:53;92480.72;;;8.83
79228;BMP280;68658;46.174;11.254;2023-05-14T01:20:20;92478.09;;;8.88
79228;BMP280;68658;46.174;11.254;2023-05-14T01:22:45;92481.69;;;8.96
79228;BMP280;68658;46.174;11.254;2023-05-14T01:25:11;92477.84;;;9.03
79228;BMP280;68658;46.174;11.254;2023-05-14T01:27:41;92476.44;;;9.07
79228;BMP280;68658;46.174;11.254;2023-05-14T01:32:57;92467.59;;;9.16
79228;BMP280;68658;46.174;11.254;2023-05-14T01:35:28;92476.22;;;9.16
79228;BMP280;68658;46.174;11.254;2023-05-14T01:38:06;92471.66;;;9.06
79228;BMP280;68658;46.174;11.254;2023-05-14T01:40:32;92469.03;;;9.06
79228;BMP280;68658;46.174;11.254;2023-05-14T01:42:59;92467.09;;;9.12
79228;BMP280;68658;46.174;11.254;2023-05-14T01:45:25;92464.94;;;9.05
79228;BMP280;68658;46.174;11.254;2023-05-14T01:47:50;92460.63;;;9.02
79228;BMP280;68658;46.174;11.254;2023-05-14T01:50:16;92464.94;;;9.05
79228;BMP280;68658;46.174;11.254;2023-05-14T01:52:41;92453.91;;;8.90
79228;BMP280;68658;46.174;11.254;2023-05-14T01:55:07;92465.19;;;9.01
79228;BMP280;68658;46.174;11.254;2023-05-14T01:57:33;92457.28;;;9.07
79228;BMP280;68658;46.174;11.254;2023-05-14T01:59:58;92462.56;;;9.07
79228;BMP280;68658;46.174;11.254;2023-05-14T02:02:24;92460.63;;;9.02
79228;BMP280;68658;46.174;11.254;2023-05-14T02:04:51;92456.31;;;8.77
79228;BMP280;68658;46.174;11.254;2023-05-14T02:07:16;92453.88;;;8.68
79228;BMP280;68658;46.174;11.254;2023-05-14T02:09:42;92449.13;;;8.83
79228;BMP280;68658;46.174;11.254;2023-05-14T02:12:08;92455.34;;;8.91
79228;BMP280;68658;46.174;11.254;2023-05-14T02:14:33;92448.69;;;9.01
79228;BMP280;68658;46.174;11.254;2023-05-14T02:16:59;92443.88;;;9.05
79228;BMP280;68658;46.174;11.254;2023-05-14T02:19:24;92429.28;;;8.98
79228;BMP280;68658;46.174;11.254;2023-05-14T02:21:50;92435.50;;;9.01
79228;BMP280;68658;46.174;11.254;2023-05-14T02:24:15;92433.59;;;9.01
79228;BMP280;68658;46.174;11.254;2023-05-14T02:26:41;92429.00;;;8.80
79228;BMP280;68658;46.174;11.254;2023-05-14T02:29:07;92422.50;;;8.53
79228;BMP280;68658;46.174;11.254;2023-05-14T02:31:33;92423.44;;;8.40
79228;BMP280;68658;46.174;11.254;2023-05-14T02:34:00;92432.31;;;8.47
79228;BMP280;68658;46.174;11.254;2023-05-14T02:36:25;92430.88;;;8.41
79228;BMP280;68658;46.174;11.254;2023-05-14T02:38:51;92416.25;;;8.35
79228;BMP280;68658;46.174;11.254;2023-05-14T02:41:16;92423.94;;;8.44
79228;BMP280;68658;46.174;11.254;2023-05-14T02:43:42;92411.28;;;8.58
79228;BMP280;68658;46.174;11.254;2023-05-14T02:46:07;92418.72;;;8.71
79228;BMP280;68658;46.174;11.254;2023-05-14T02:51:54;92410.09;;;8.70
79228;BMP280;68658;46.174;11.254;2023-05-14T02:54:20;92410.31;;;8.50
79228;BMP280;68658;46.174;11.254;2023-05-14T02:56:45;92410.50;;;8.31
79228;BMP280;68658;46.174;11.254;2023-05-14T02:59:11;92409.09;;;8.41
79228;BMP280;68658;46.174;11.254;2023-05-14T03:01:36;92410.34;;;8.56
79228;BMP280;68658;46.174;11.254;2023-05-14T03:04:02;92397.66;;;8.60
79228;BMP280;68658;46.174;11.254;2023-05-14T03:06:27;92403.13;;;8.51
79228;BMP280;68658;46.174;11.254;2023-05-14T03:08:53;92390.25;;;8.58
79228;BMP280;68658;46.174;11.254;2023-05-14T03:11:18;92391.44;;;8.63
79228;BMP280;68658;46.174;11.254;2023-05-14T03:13:43;92396.22;;;8.64
79228;BMP280;68658;46.174;11.254;2023-05-14T03:16:09;92394.56;;;8.67
79228;BMP280;68658;46.174;11.254;2023-05-14T03:18:35;92394.56;;;8.67
79228;BMP280;68658;46.174;11.254;2023-05-14T03:21:01;92389.06;;;8.70
79228;BMP280;68658;46.174;11.254;2023-05-14T03:23:27;92382.59;;;8.66
79228;BMP280;68658;46.174;11.254;2023-05-14T03:25:53;92388.31;;;8.59
79228;BMP280;68658;46.174;11.254;2023-05-14T03:28:18;92387.38;;;8.62
79228;BMP280;68658;46.174;11.254;2023-05-14T03:30:43;92378.75;;;8.67
79228;BMP280;68658;46.174;11.254;2023-05-14T03:33:09;92385.47;;;8.68
79228;BMP280;68658;46.174;11.254;2023-05-14T03:35:35;92387.84;;;8.66
79228;BMP280;68658;46.174;11.254;2023-05-14T03:38:00;92384.03;;;8.72
79228;BMP280;68658;46.174;11.254;2023-05-14T03:40:25;92389.31;;;8.72
79228;BMP280;68658;46.174;11.254;2023-05-14T03:42:51;92390.69;;;8.46
79228;BMP280;68658;46.174;11.254;2023-05-14T03:45:16;92385.88;;;8.34
79228;BMP280;68658;46.174;11.254;2023-05-14T03:47:42;92386.75;;;8.14
79228;BMP280;68658;46.174;11.254;2023-05-14T03:50:07;92382.53;;;8.28
79228;BMP280;68658;46.174;11.254;2023-05-14T03:52:33;92392.13;;;8.47
79228;BMP280;68658;46.174;11.254;2023-05-14T03:54:58;92387.34;;;8.40
79228;BMP280;68658;46.174;11.254;2023-05-14T03:57:24;92399.03;;;8.28
79228;BMP280;68658;46.174;11.254;2023-05-14T03:59:49;92388.53;;;8.34
79228;BMP280;68658;46.174;11.254;2023-05-14T04:02:15;92387.34;;;8.40
79228;BMP280;68658;46.174;11.254;2023-05-14T04:04:40;92384.00;;;8.45
79228;BMP280;68658;46.174;11.254;2023-05-14T04:07:06;92383.53;;;8.41
79228;BMP280;68658;46.174;11.254;2023-05-14T04:09:33;92387.59;;;8.47
79228;BMP280;68658;46.174;11.254;2023-05-14T04:11:58;92377.06;;;8.42
79228;BMP280;68658;46.174;11.254;2023-05-14T04:14:24;92377.06;;;8.47
79228;BMP280;68658;46.174;11.254;2023-05-14T04:16:49;92377.53;;;8.30
79228;BMP280;68658;46.174;11.254;2023-05-14T04:19:15;92372.94;;;8.19
79228;BMP280;68658;46.174;11.254;2023-05-14T04:21:40;92372.94;;;8.19
79228;BMP280;68658;46.174;11.254;2023-05-14T04:24:06;92366.72;;;8.17
79228;BMP280;68658;46.174;11.254;2023-05-14T04:26:31;92371.06;;;8.36
79228;BMP280;68658;46.174;11.254;2023-05-14T04:28:57;92374.69;;;8.55
79228;BMP280;68658;46.174;11.254;2023-05-14T04:31:27;92367.75;;;8.52
79228;BMP280;68658;46.174;11.254;2023-05-14T04:33:52;92360.56;;;8.58
79228;BMP280;68658;46.174;11.254;2023-05-14T04:36:17;92364.41;;;8.68
79228;BMP280;68658;46.174;11.254;2023-05-14T04:38:46;92356.50;;;8.62
79228;BMP280;68658;46.174;11.254;2023-05-14T04:41:12;92370.38;;;8.68
79228;BMP280;68658;46.174;11.254;2023-05-14T04:43:38;92367.28;;;8.81
79228;BMP280;68658;46.174;11.254;2023-05-14T04:46:04;92366.59;;;8.86
79228;BMP280;68658;46.174;11.254;2023-05-14T04:48:30;92369.44;;;8.88
79228;BMP280;68658;46.174;11.254;2023-05-14T04:50:55;92365.84;;;8.85
79228;BMP280;68658;46.174;11.254;2023-05-14T04:53:21;92359.88;;;8.90
79228;BMP280;68658;46.174;11.254;2023-05-14T04:55:49;92357.25;;;8.90
79228;BMP280;68658;46.174;11.254;2023-05-14T04:58:14;92363.47;;;8.93
79228;BMP280;68658;46.174;11.254;2023-05-14T05:00:40;92355.09;;;9.05
79228;BMP280;68658;46.174;11.254;2023-05-14T05:03:05;92367.28;;;9.14
79228;BMP280;68658;46.174;11.254;2023-05-14T05:05:31;92355.53;;;9.42
79228;BMP280;68658;46.174;11.254;2023-05-14T05:07:57;92367.75;;;9.34
79228;BMP280;68658;46.174;11.254;2023-05-14T05:10:22;92356.97;;;9.32
79228;BMP280;68658;46.174;11.254;2023-05-14T05:12:48;92360.75;;;9.53
79228;BMP280;68658;46.174;11.254;2023-05-14T05:15:13;92360.22;;;9.71
79228;BMP280;68658;46.174;11.254;2023-05-14T05:17:39;92360.44;;;9.78
79228;BMP280;68658;46.174;11.254;2023-05-14T05:20:08;92358.06;;;9.69
79228;BMP280;68658;46.174;11.254;2023-05-14T05:22:34;92357.59;;;9.76
79228;BMP280;68658;46.174;11.254;2023-05-14T05:25:01;92347.50;;;9.75
79228;BMP280;68658;46.174;11.254;2023-05-14T05:27:31;92340.16;;;9.57
79228;BMP280;68658;46.174;11.254;2023-05-14T05:33:18;92336.50;;;9.76
79228;BMP280;68658;46.174;11.254;2023-05-14T05:35:44;92341.78;;;9.71
79228;BMP280;68658;46.174;11.254;2023-05-14T05:38:10;92334.09;;;9.73
79228;BMP280;68658;46.174;11.254;2023-05-14T05:40:35;92341.03;;;9.70
79228;BMP280;68658;46.174;11.254;2023-05-14T05:43:01;92343.22;;;9.66
79228;BMP280;68658;46.174;11.254;2023-05-14T05:45:26;92347.50;;;9.69
79228;BMP280;68658;46.174;11.254;2023-05-14T05:47:52;92348.03;;;9.62
79228;BMP280;68658;46.174;11.254;2023-05-14T05:50:18;92339.72;;;9.42
79228;BMP280;68658;46.174;11.254;2023-05-14T05:52:43;92344.72;;;9.45
79228;BMP280;68658;46.174;11.254;2023-05-14T05:55:09;92334.63;;;9.60
79228;BMP280;68658;46.174;11.254;2023-05-14T05:57:35;92338.19;;;9.68
79228;BMP280;68658;46.174;11.254;2023-05-14T06:00:00;92333.63;;;9.74
79228;BMP280;68658;46.174;11.254;2023-05-14T06:02:33;92324.97;;;9.79
79228;BMP280;68658;46.174;11.254;2023-05-14T06:04:59;92332.84;;;9.85
79228;BMP280;68658;46.174;11.254;2023-05-14T06:07:24;92330.47;;;9.81
79228;BMP280;68658;46.174;11.254;2023-05-14T06:09:50;92327.41;;;9.72
79228;BMP280;68658;46.174;11.254;2023-05-14T06:12:15;92327.09;;;9.81
79228;BMP280;68658;46.174;11.254;2023-05-14T06:14:40;92323.06;;;9.80
79228;BMP280;68658;46.174;11.254;2023-05-14T06:17:06;92320.63;;;9.87
79228;BMP280;68658;46.174;11.254;2023-05-14T06:19:32;92318.66;;;10.04
79228;BMP280;68658;46.174;11.254;2023-05-14T06:21:57;92309.47;;;10.16
79228;BMP280;68658;46.174;11.254;2023-05-14T06:24:23;92318.31;;;10.24
79228;BMP280;68658;46.174;11.254;2023-05-14T06:26:48;92307.97;;;10.26
79228;BMP280;68658;46.174;11.254;2023-05-14T06:29:14;92308.47;;;10.24
79228;BMP280;68658;46.174;11.254;2023-05-14T06:31:39;92300.22;;;10.39
79228;BMP280;68658;46.174;11.254;2023-05-14T06:34:05;92300.09;;;10.55
79228;BMP280;68658;46.174;11.254;2023-05-14T06:36:30;92300.88;;;10.50
79228;BMP280;68658;46.174;11.254;2023-05-14T06:38:56;92301.84;;;10.47
79228;BMP280;68658;46.174;11.254;2023-05-14T06:41:21;92292.81;;;10.67
79228;BMP280;68658;46.174;11.254;2023-05-14T06:43:47;92293.28;;;10.71
79228;BMP280;68658;46.174;11.254;2023-05-14T06:46:12;92285.44;;;10.89
79228;BMP280;68658;46.174;11.254;2023-05-14T06:48:38;92289.69;;;10.97
79228;BMP280;68658;46.174;11.254;2023-05-14T06:51:04;92284.91;;;11.20
79228;BMP280;68658;46.174;11.254;2023-05-14T06:53:29;92281.00;;;11.26
79228;BMP280;68658;46.174;11.254;2023-05-14T06:55:55;92283.53;;;11.13
79228;BMP280;68658;46.174;11.254;2023-05-14T06:58:21;92277.75;;;11.15
79228;BMP280;68658;46.174;11.254;2023-05-14T07:00:47;92279.03;;;11.08
79228;BMP280;68658;46.174;11.254;2023-05-14T07:03:12;92282.16;;;11.07
79228;BMP280;68658;46.174;11.254;2023-05-14T07:05:38;92279.91;;;11.16
79228;BMP280;68658;46.174;11.254;2023-05-14T07:08:05;92273.16;;;11.21
79228;BMP280;68658;46.174;11.254;2023-05-14T07:10:30;92268.78;;;11.23
79228;BMP280;68658;46.174;11.254;2023-05-14T07:12:57;92260.97;;;11.36
79228;BMP280;68658;46.174;11.254;2023-05-14T07:15:22;92256.84;;;11.41
79228;BMP280;68658;46.174;11.254;2023-05-14T07:17:48;92250.81;;;11.64
79228;BMP280;68658;46.174;11.254;2023-05-14T07:20:13;92251.34;;;11.81
79228;BMP280;68658;46.174;11.254;2023-05-14T07:22:39;92246.69;;;11.87
79228;BMP280;68658;46.174;11.254;2023-05-14T07:25:04;92252.19;;;12.07
79228;BMP280;68658;46.174;11.254;2023-05-14T07:27:30;92252.06;;;12.00
79228;BMP280;68658;46.174;11.254;2023-05-14T07:29:56;92266.34;;;12.10
79228;BMP280;68658;46.174;11.254;2023-05-14T07:32:21;92254.34;;;12.09
79228;BMP280;68658;46.174;11.254;2023-05-14T07:34:49;92258.03;;;12.37
79228;BMP280;68658;46.174;11.254;2023-05-14T07:37:14;92252.53;;;12.35
79228;BMP280;68658;46.174;11.254;2023-05-14T07:39:40;92243.00;;;12.45
79228;BMP280;68658;46.174;11.254;2023-05-14T07:42:06;92239.22;;;12.40
79228;BMP280;68658;46.174;11.254;2023-05-14T07:44:32;92238.31;;;12.20
79228;BMP280;68658;46.174;11.254;2023-05-14T07:46:58;92237.41;;;12.17
79228;BMP280;68658;46.174;11.254;2023-05-14T07:49:23;92238.09;;;12.18
79228;BMP280;68658;46.174;11.254;2023-05-14T07:51:49;92231.75;;;12.08
79228;BMP280;68658;46.174;11.254;2023-05-14T07:54:15;92226.25;;;12.06
79228;BMP280;68658;46.174;11.254;2023-05-14T07:56:41;92223.88;;;12.21
79228;BMP280;68658;46.174;11.254;2023-05-14T07:59:06;92221.94;;;12.21
79228;BMP280;68658;46.174;11.254;2023-05-14T08:01:32;92216.00;;;12.15
79228;BMP280;68658;46.174;11.254;2023-05-14T08:03:58;92204.25;;;12.29
79228;BMP280;68658;46.174;11.254;2023-05-14T08:06:23;92208.66;;;12.39
79228;BMP280;68658;46.174;11.254;2023-05-14T08:08:52;92203.19;;;12.37
79228;BMP280;68658;46.174;11.254;2023-05-14T08:11:18;92200.53;;;12.37
79228;BMP280;68658;46.174;11.254;2023-05-14T08:13:43;92190.53;;;12.31
79228;BMP280;68658;46.174;11.254;2023-05-14T08:16:09;92185.69;;;12.47
79228;BMP280;68658;46.174;11.254;2023-05-14T08:18:35;92186.28;;;12.53
79228;BMP280;68658;46.174;11.254;2023-05-14T08:21:01;92184.38;;;12.54
79228;BMP280;68658;46.174;11.254;2023-05-14T08:23:26;92186.84;;;12.65
79228;BMP280;68658;46.174;11.254;2023-05-14T08:25:52;92177.06;;;12.73
79228;BMP280;68658;46.174;11.254;2023-05-14T08:28:17;92167.44;;;12.88
79228;BMP280;68658;46.174;11.254;2023-05-14T08:30:43;92163.59;;;12.89
79228;BMP280;68658;46.174;11.254;2023-05-14T08:33:08;92165.16;;;12.79
79228;BMP280;68658;46.174;11.254;2023-05-14T08:35:37;92159.56;;;12.83
79228;BMP280;68658;46.174;11.254;2023-05-14T08:38:02;92153.19;;;13.04
79228;BMP280;68658;46.174;11.254;2023-05-14T08:40:27;92151.13;;;13.36
79228;BMP280;68658;46.174;11.254;2023-05-14T08:42:55;92149.91;;;13.50
79228;BMP280;68658;46.174;11.254;2023-05-14T08:45:23;92143.66;;;13.60
79228;BMP280;68658;46.174;11.254;2023-05-14T08:47:51;92134.84;;;13.65
79228;BMP280;68658;46.174;11.254;2023-05-14T08:50:17;92139.28;;;13.50
79228;BMP280;68658;46.174;11.254;2023-05-14T08:52:47;92143.97;;;13.57
79228;BMP280;68658;46.174;11.254;2023-05-14T08:55:12;92138.09;;;13.71
79228;BMP280;68658;46.174;11.254;2023-05-14T08:57:38;92135.69;;;13.93
79228;BMP280;68658;46.174;11.254;2023-05-14T09:00:04;92135.28;;;13.89
79228;BMP280;68658;46.174;11.254;2023-05-14T09:02:33;92130.09;;;13.84
79228;BMP280;68658;46.174;11.254;2023-05-14T09:05:01;92135.69;;;13.93
79228;BMP280;68658;46.174;11.254;2023-05-14T09:07:27;92133.47;;;13.85
79228;BMP280;68658;46.174;11.254;2023-05-14T09:09:54;92135.09;;;13.88
79228;BMP280;68658;46.174;11.254;2023-05-14T09:12:20;92121.84;;;14.08
79228;BMP280;68658;46.174;11.254;2023-05-14T09:14:47;92123.59;;;14.05
79228;BMP280;68658;46.174;11.254;2023-05-14T09:17:13;92120.34;;;13.99
79228;BMP280;68658;46.174;11.254;2023-05-14T09:19:39;92114.81;;;14.10
79228;BMP280;68658;46.174;11.254;2023-05-14T09:22:08;92116.19;;;14.24
79228;BMP280;68658;46.174;11.254;2023-05-14T09:24:34;92114.66;;;14.29
79228;BMP280;68658;46.174;11.254;2023-05-14T09:27:00;92117.88;;;14.35
79228;BMP280;68658;46.174;11.254;2023-05-14T09:29:27;92109.38;;;14.36
79228;BMP280;68658;46.174;11.254;2023-05-14T09:31:54;92100.09;;;14.50
79228;BMP280;68658;46.174;11.254;2023-05-14T09:34:31;92098.38;;;14.32
79228;BMP280;68658;46.174;11.254;2023-05-14T09:37:03;92093.09;;;14.32
79228;BMP280;68658;46.174;11.254;2023-05-14T09:39:29;92103.38;;;14.36
79228;BMP280;68658;46.174;11.254;2023-05-14T09:41:55;92087.78;;;14.32
79228;BMP280;68658;46.174;11.254;2023-05-14T09:44:21;92088.22;;;14.44
79228;BMP280;68658;46.174;11.254;2023-05-14T09:46:48;92087.47;;;14.43
79228;BMP280;68658;46.174;11.254;2023-05-14T09:49:14;92081.59;;;14.37
79228;BMP280;68658;46.174;11.254;2023-05-14T09:51:40;92081.81;;;14.19
79228;BMP280;68658;46.174;11.254;2023-05-14T09:54:07;92081.13;;;14.05
79228;BMP280;68658;46.174;11.254;2023-05-14T09:56:33;92079.97;;;13.93
79228;BMP280;68658;46.174;11.254;2023-05-14T09:58:59;92078.47;;;14.05
79228;BMP280;68658;46.174;11.254;2023-05-14T10:01:28;92070.63;;;14.13
79228;BMP280;68658;46.174;11.254;2023-05-14T10:03:54;92070.13;;;14.01
79228;BMP280;68658;46.174;11.254;2023-05-14T10:06:22;92073.78;;;13.78
79228;BMP280;68658;46.174;11.254;2023-05-14T10:08:55;92074.13;;;13.75
79228;BMP280;68658;46.174;11.254;2023-05-14T10:11:24;92067.06;;;13.77
79228;BMP280;68658;46.174;11.254;2023-05-14T10:13:57;92066.28;;;13.69
79228;BMP280;68658;46.174;11.254;2023-05-14T10:16:27;92065.91;;;13.65
79228;BMP280;68658;46.174;11.254;2023-05-14T10:18:57;92064.94;;;13.76
79228;BMP280;68658;46.174;11.254;2023-05-14T10:21:25;92057.72;;;13.63
79228;BMP280;68658;46.174;11.254;2023-05-14T10:23:54;92056.72;;;13.66
79228;BMP280;68658;46.174;11.254;2023-05-14T10:26:20;92048.63;;;13.72
79228;BMP280;68658;46.174;11.254;2023-05-14T10:28:46;92051.88;;;13.78
79228;BMP280;68658;46.174;11.254;2023-05-14T10:31:12;92046.88;;;13.74
79228;BMP280;68658;46.174;11.254;2023-05-14T10:33:50;92051.72;;;13.63
79228;BMP280;68658;46.174;11.254;2023-05-14T10:36:19;92057.03;;;13.63
79228;BMP280;68658;46.174;11.254;2023-05-14T10:38:45;92058.25;;;13.62
79228;BMP280;68658;46.174;11.254;2023-05-14T10:41:12;92042.56;;;13.64
79228;BMP280;68658;46.174;11.254;2023-05-14T10:43:41;92050.94;;;13.55
79228;BMP280;68658;46.174;11.254;2023-05-14T10:46:09;92038.59;;;13.57
79228;BMP280;68658;46.174;11.254;2023-05-14T10:48:40;92049.28;;;13.65
79228;BMP280;68658;46.174;11.254;2023-05-14T10:51:07;92042.41;;;13.49
79228;BMP280;68658;46.174;11.254;2023-05-14T10:53:35;92033.78;;;13.35
79228;BMP280;68658;46.174;11.254;2023-05-14T10:56:13;92035.72;;;13.35
79228;BMP280;68658;46.174;11.254;2023-05-14T10:58:41;92045.53;;;13.14
79228;BMP280;68658;46.174;11.254;2023-05-14T11:01:11;92035.72;;;13.22
79228;BMP280;68658;46.174;11.254;2023-05-14T11:03:45;92031.88;;;13.23
79228;BMP280;68658;46.174;11.254;2023-05-14T11:06:12;92027.28;;;13.23
79228;BMP280;68658;46.174;11.254;2023-05-14T11:08:41;92038.06;;;13.38
79228;BMP280;68658;46.174;11.254;2023-05-14T11:11:07;92032.13;;;13.32
79228;BMP280;68658;46.174;11.254;2023-05-14T11:13:34;92025.63;;;13.33
79228;BMP280;68658;46.174;11.254;2023-05-14T11:16:00;92019.59;;;13.33
79228;BMP280;68658;46.174;11.254;2023-05-14T11:18:33;92018.38;;;13.34
79228;BMP280;68658;46.174;11.254;2023-05-14T11:21:01;92021.53;;;13.32
79228;BMP280;68658;46.174;11.254;2023-05-14T11:23:27;92026.41;;;13.41
79228;BMP280;68658;46.174;11.254;2023-05-14T11:25:53;92017.47;;;13.65
79228;BMP280;68658;46.174;11.254;2023-05-14T11:28:24;92009.94;;;13.56
79228;BMP280;68658;46.174;11.254;2023-05-14T11:30:50;92014.50;;;13.55
79228;BMP280;68658;46.174;11.254;2023-05-14T11:33:16;92014.06;;;13.44
79228;BMP280;68658;46.174;11.254;2023-05-14T11:35:42;92007.53;;;13.65
79228;BMP280;68658;46.174;11.254;2023-05-14T11:38:16;92015.00;;;13.87
79228;BMP280;68658;46.174;11.254;2023-05-14T11:40:50;92005.69;;;14.14
79228;BMP280;68658;46.174;11.254;2023-05-14T11:43:20;92006.97;;;14.20
79228;BMP280;68658;46.174;11.254;2023-05-14T11:45:52;92001.03;;;14.35
79228;BMP280;68658;46.174;11.254;2023-05-14T11:48:22;92003.03;;;14.14
79228;BMP280;68658;46.174;11.254;2023-05-14T11:50:51;91994.59;;;14.02
79228;BMP280;68658;46.174;11.254;2023-05-14T11:53:27;91994.78;;;14.04
79228;BMP280;68658;46.174;11.254;2023-05-14T11:55:53;91999.59;;;13.86
79228;BMP280;68658;46.174;11.254;2023-05-14T11:58:20;91989.13;;;14.08
79228;BMP280;68658;46.174;11.254;2023-05-14T12:00:49;91985.16;;;14.14
79228;BMP280;68658;46.174;11.254;2023-05-14T12:03:14;91982.53;;;14.22
79228;BMP280;68658;46.174;11.254;2023-05-14T12:05:40;91985.34;;;14.44
79228;BMP280;68658;46.174;11.254;2023-05-14T12:08:20;91986.28;;;14.26
79228;BMP280;68658;46.174;11.254;2023-05-14T12:10:46;91973.34;;;14.23
79228;BMP280;68658;46.174;11.254;2023-05-14T12:13:14;91979.72;;;14.20
79228;BMP280;68658;46.174;11.254;2023-05-14T12:15:43;91977.56;;;14.18
79228;BMP280;68658;46.174;11.254;2023-05-14T12:18:09;91982.81;;;14.11
79228;BMP280;68658;46.174;11.254;2023-05-14T12:20:35;91976.19;;;14.25
79228;BMP280;68658;46.174;11.254;2023-05-14T12:23:01;91972.44;;;14.48
79228;BMP280;68658;46.174;11.254;2023-05-14T12:25:28;91967.34;;;14.22
79228;BMP280;68658;46.174;11.254;2023-05-14T12:27:53;91969.97;;;14.50
79228;BMP280;68658;46.174;11.254;2023-05-14T12:30:58;91972.06;;;14.44
79228;BMP280;68658;46.174;11.254;2023-05-14T12:33:25;91960.69;;;14.36
79228;BMP280;68658;46.174;11.254;2023-05-14T12:35:54;91965.44;;;14.30
79228;BMP280;68658;46.174;11.254;2023-05-14T12:38:25;91963.34;;;14.36
79228;BMP280;68658;46.174;11.254;2023-05-14T12:40:51;91969.59;;;14.46
79228;BMP280;68658;46.174;11.254;2023-05-14T12:43:17;91958.59;;;14.42
79228;BMP280;68658;46.174;11.254;2023-05-14T12:45:43;91960.91;;;14.46
79228;BMP280;68658;46.174;11.254;2023-05-14T12:48:08;91957.28;;;14.28
79228;BMP280;68658;46.174;11.254;2023-05-14T12:50:34;91962.09;;;14.09
79228;BMP280;68658;46.174;11.254;2023-05-14T12:53:00;91961.63;;;14.18
79228;BMP280;68658;46.174;11.254;2023-05-14T12:55:25;91954.91;;;14.45
79228;BMP280;68658;46.174;11.254;2023-05-14T12:57:51;91952.25;;;14.45
79228;BMP280;68658;46.174;11.254;2023-05-14T13:00:17;91953.88;;;14.20
79228;BMP280;68658;46.174;11.254;2023-05-14T13:02:42;91958.81;;;14.16
79228;BMP280;68658;46.174;11.254;2023-05-14T13:05:08;91961.22;;;13.87
79228;BMP280;68658;46.174;11.254;2023-05-14T13:07:34;91954.78;;;14.02
79228;BMP280;68658;46.174;11.254;2023-05-14T13:10:00;91948.22;;;14.03
79228;BMP280;68658;46.174;11.254;2023-05-14T13:12:26;91946.31;;;14.04
79228;BMP280;68658;46.174;11.254;2023-05-14T13:14:51;91946.78;;;14.23
79228;BMP280;68658;46.174;11.254;2023-05-14T13:17:18;91950.34;;;14.25
79228;BMP280;68658;46.174;11.254;2023-05-14T13:19:43;91941.16;;;14.26
79228;BMP280;68658;46.174;11.254;2023-05-14T13:22:09;91941.88;;;14.27
79228;BMP280;68658;46.174;11.254;2023-05-14T13:24:35;91944.94;;;14.10
79228;BMP280;68658;46.174;11.254;2023-05-14T13:27:01;91940.66;;;14.07
79228;BMP280;68658;46.174;11.254;2023-05-14T13:29:26;91940.47;;;14.05
79228;BMP280;68658;46.174;11.254;2023-05-14T13:31:54;91943.88;;;13.86
79228;BMP280;68658;46.174;11.254;2023-05-14T13:34:22;91939.13;;;13.64
79228;BMP280;68658;46.174;11.254;2023-05-14T13:40:04;91927.75;;;13.84
79228;BMP280;68658;46.174;11.254;2023-05-14T13:42:36;91938.66;;;13.73
79228;BMP280;68658;46.174;11.254;2023-05-14T13:45:04;91946.53;;;13.45
79228;BMP280;68658;46.174;11.254;2023-05-14T13:47:30;91947.78;;;13.23
79228;BMP280;68658;46.174;11.254;2023-05-14T13:49:57;91941.31;;;13.32
79228;BMP280;68658;46.174;11.254;2023-05-14T13:52:23;91945.91;;;13.31
79228;BMP280;68658;46.174;11.254;2023-05-14T13:54:48;91944.75;;;13.40
79228;BMP280;68658;46.174;11.254;2023-05-14T13:57:14;91947.63;;;13.29
79228;BMP280;68658;46.174;11.254;2023-05-14T13:59:40;91951.28;;;13.06
79228;BMP280;68658;46.174;11.254;2023-05-14T14:02:07;91948.31;;;13.09
79228;BMP280;68658;46.174;11.254;2023-05-14T14:04:33;91959.56;;;13.02
79228;BMP280;68658;46.174;11.254;2023-05-14T14:06:58;91947.44;;;12.81
79228;BMP280;68658;46.174;11.254;2023-05-14T14:09:24;91943.78;;;12.84
79228;BMP280;68658;46.174;11.254;2023-05-14T14:11:50;91943.50;;;12.74